WetterOnline ( https://www.wetteronline.de )

Wetter aktuell Essen

Aktuelles Wetter: Essen (161m)

6-stündlich | Neueste Meldungen
Ortszeit Temperatur Wetter
Do, 03.12. 1:00 2.7° C bedeckt
Mi, 02.12. 19:00 3.4° C Sprühregen
Mi, 02.12. 13:00 3.9° C bedeckt
Mi, 02.12. 7:00 4.7° C Sprühregen
Mi, 02.12. 1:00 5.5° C Sprühregen
Di, 01.12. 19:00 7.0° C Sprühregen
Di, 01.12. 13:00 6.7° C Sprühregen
Di, 01.12. 7:00 4.3° C Nebel
Ortszeit Temperatur Wetter
Do, 03.12. 2:30 2.8° C bewölkt
Do, 03.12. 2:20 2.8° C bewölkt
Do, 03.12. 2:10 2.7° C bedeckt
Do, 03.12. 2:00 2.7° C bedeckt
Do, 03.12. 1:50 2.7° C bedeckt
Do, 03.12. 1:40 2.7° C bedeckt
Do, 03.12. 1:30 2.7° C bewölkt
Do, 03.12. 1:00 2.7° C bedeckt
Ortszeit Relative Feuchte Sichtweite
Do, 03.12. 1:00 95% 9 km
Mi, 02.12. 19:00 97% 5.0 km
Mi, 02.12. 13:00 97% 14 km
Mi, 02.12. 7:00 99% 0.3 km
Mi, 02.12. 1:00 97% 0.4 km
Di, 01.12. 19:00 97% 1.7 km
Di, 01.12. 13:00 99% 1.7 km
Di, 01.12. 7:00 99% 0.6 km
Ortszeit Relative Feuchte Sichtweite
Do, 03.12. 2:30 95% 8 km
Do, 03.12. 2:20 95% -
Do, 03.12. 2:10 94% -
Do, 03.12. 2:00 95% 7 km
Do, 03.12. 1:50 95% -
Do, 03.12. 1:40 95% -
Do, 03.12. 1:30 94% 7 km
Do, 03.12. 1:00 95% 9 km
Ortszeit Niederschlagsmenge Niederschlagsart
Do, 03.12. 1:00 0.1 l/m2 in 6 Std. Regen
Mi, 02.12. 19:00 0.8 l/m2 in 12 Std. Regen
Mi, 02.12. 13:00 0.5 l/m2 in 6 Std. Regen
Mi, 02.12. 7:00 3 l/m2 in 12 Std. Regen
Mi, 02.12. 1:00 3 l/m2 in 6 Std. Regen
Di, 01.12. 19:00 7 l/m2 in 12 Std. Regen
Di, 01.12. 13:00 4 l/m2 in 6 Std. Regen
Di, 01.12. 7:00 13 l/m2 in 12 Std. Schnee, Regen
Ortszeit Niederschlagsmenge Niederschlagsart
Do, 03.12. 2:30 0.0 l/m2 in 1 Std. -
Do, 03.12. 2:20 keine Meldung -
Do, 03.12. 2:10 keine Meldung -
Do, 03.12. 2:00 0.0 l/m2 in 1 Std. -
Do, 03.12. 1:50 keine Meldung -
Do, 03.12. 1:40 keine Meldung -
Do, 03.12. 1:30 0.0 l/m2 in 1 Std. -
Do, 03.12. 1:00 0.0 l/m2 in 1 Std. Regen
Ortszeit Stärke Spitze Richtung
km/h Bft. km/h Grad Sektor
Do, 03.12. 1:00 7 2 22 190° S
Mi, 02.12. 19:00 7 2 14 170° S
Mi, 02.12. 13:00 7 2 14 230° SW
Mi, 02.12. 7:00 7 2 18 50° NO
Mi, 02.12. 1:00 6 1 22 90° O
Di, 01.12. 19:00 11 2 32 50° NO
Di, 01.12. 13:00 4 1 18 280° W
Di, 01.12. 7:00 7 2 25 210° SW
Ortszeit Stärke Spitze Richtung
km/h Bft. km/h Grad Sektor
Do, 03.12. 2:30 11 2 25 180° S
Do, 03.12. 2:20 11 2 - 180° S
Do, 03.12. 2:10 13 3 - 170° S
Do, 03.12. 2:00 11 2 18 180° S
Do, 03.12. 1:50 11 2 - 180° S
Do, 03.12. 1:40 9 2 - 170° S
Do, 03.12. 1:30 11 2 18 170° S
Do, 03.12. 1:00 7 2 22 190° S
Ortszeit Untergrenze Bedeckung Gattung
total tief tief mittel hoch
Do, 03.12. 1:00 180 m 8/8 8/8 - - -
Mi, 02.12. 19:00 120 m 8/8 8/8 - - -
Mi, 02.12. 13:00 90 m 8/8 8/8 - - -
Mi, 02.12. 7:00 <30 m 8/8 0/8 - - -
Mi, 02.12. 1:00 60 m 8/8 8/8 - - -
Di, 01.12. 19:00 90 m 7/8 7/8 - - -
Di, 01.12. 13:00 30 m 7/8 8/8 - - -
Di, 01.12. 7:00 30 m 8/8 8/8 - - -
Ortszeit Bedeckungsgrad in Achtel und Wolkenuntergrenze
Do, 03.12. 2:30 7(150m)
Do, 03.12. 2:20 7(150m)
Do, 03.12. 2:10 8(150m)
Do, 03.12. 2:00 8(150m)
Do, 03.12. 1:50 8(150m)
Do, 03.12. 1:40 8(150m)
Do, 03.12. 1:30 7(180m)
Do, 03.12. 1:00 7(180m) 8(270m)
Ortszeit Luftdruck NN (hPa) Tendenz (hPa in 3 Std.)
Do, 03.12. 1:00 1010 - 2,1
Mi, 02.12. 19:00 1014 - 1,4
Mi, 02.12. 13:00 1017 - 2,0
Mi, 02.12. 7:00 1020 - 0,5
Mi, 02.12. 1:00 1020 + 0,9
Di, 01.12. 19:00 1017 + 2,0
Di, 01.12. 13:00 1015 + 0,6
Di, 01.12. 7:00 1013 + 0,2
Ortszeit Luftdruck NN (hPa) Tendenz (hPa in 3 Std.)
Do, 03.12. 2:30 1009 - 2,4
Do, 03.12. 2:20 1009 keine Meldung
Do, 03.12. 2:10 1009 keine Meldung
Do, 03.12. 2:00 1009 - 2,4
Do, 03.12. 1:50 1009 keine Meldung
Do, 03.12. 1:40 1009 keine Meldung
Do, 03.12. 1:30 1010 - 2,3
Do, 03.12. 1:00 1010 - 2,1
Ortszeit Schneehöhe (cm)
Do, 03.12. 1:00 0
Mi, 02.12. 19:00 0
Mi, 02.12. 13:00 0
Mi, 02.12. 7:00 0
Mi, 02.12. 1:00 0
Di, 01.12. 19:00 0
Di, 01.12. 13:00 0
Di, 01.12. 7:00 0
Ortszeit Schneehöhe (cm)
Do, 03.12. 2:30 0
Do, 03.12. 2:20 0
Do, 03.12. 2:10 0
Do, 03.12. 2:00 0
Do, 03.12. 1:50 0
Do, 03.12. 1:40 0
Do, 03.12. 1:30 0
Do, 03.12. 1:00 0
Link zu dieser Seite / Seite empfehlen

Das Wetter in ...